createdAt,value
2023-09-22T00:01:06.466Z,1.35
2023-09-22T00:03:34.978Z,2.03
2023-09-22T00:06:05.607Z,1.52
2023-09-22T00:08:34.273Z,1.52
2023-09-22T00:11:02.624Z,1.50
2023-09-22T00:13:33.065Z,1.60
2023-09-22T00:16:01.539Z,1.50
2023-09-22T00:18:30.011Z,1.63
2023-09-22T00:20:58.552Z,2.13
2023-09-22T00:23:26.973Z,1.45
2023-09-22T00:25:55.654Z,1.60
2023-09-22T00:28:24.516Z,1.77
2023-09-22T00:30:54.332Z,1.27
2023-09-22T00:33:23.089Z,1.57
2023-09-22T00:35:52.671Z,1.50
2023-09-22T00:38:21.176Z,1.50
2023-09-22T00:40:49.535Z,1.58
2023-09-22T00:43:18.559Z,1.70
2023-09-22T00:45:50.410Z,1.90
2023-09-22T00:48:23.849Z,1.40
2023-09-22T00:50:54.064Z,1.77
2023-09-22T00:53:23.083Z,1.65
2023-09-22T00:55:53.137Z,1.70
2023-09-22T00:58:21.905Z,1.80
2023-09-22T01:00:51.254Z,1.90
2023-09-22T01:03:22.078Z,1.77
2023-09-22T01:05:52.137Z,1.60
2023-09-22T01:08:20.855Z,1.88
2023-09-22T01:10:49.218Z,1.58
2023-09-22T01:13:17.616Z,1.80
2023-09-22T01:15:46.311Z,1.50
2023-09-22T01:18:15.359Z,2.10
2023-09-22T01:20:46.362Z,1.88
2023-09-22T01:23:16.922Z,2.30
2023-09-22T01:25:46.504Z,2.08
2023-09-22T01:28:15.457Z,1.83
2023-09-22T01:30:44.811Z,1.70
2023-09-22T01:33:13.319Z,1.75
2023-09-22T01:35:42.023Z,1.40
2023-09-22T01:38:13.786Z,1.95
2023-09-22T01:40:44.063Z,1.60
2023-09-22T01:43:13.792Z,1.80
2023-09-22T01:45:42.389Z,1.90
2023-09-22T01:48:11.233Z,1.75
2023-09-22T01:50:41.513Z,1.90
2023-09-22T01:53:11.753Z,1.85
2023-09-22T01:55:40.970Z,1.93
2023-09-22T01:58:12.469Z,2.10
2023-09-22T02:00:41.186Z,1.95
2023-09-22T02:03:09.907Z,1.73
2023-09-22T02:05:38.604Z,1.92
2023-09-22T02:08:08.664Z,2.35
2023-09-22T02:10:37.218Z,1.70
2023-09-22T02:13:08.521Z,2.13
2023-09-22T02:15:38.617Z,1.95
2023-09-22T02:18:07.518Z,1.98
2023-09-22T02:20:36.318Z,2.00
2023-09-22T02:23:05.063Z,2.17
2023-09-22T02:25:33.914Z,2.28
2023-09-22T02:28:02.458Z,2.00
2023-09-22T02:30:31.163Z,2.10
2023-09-22T02:33:01.235Z,2.13
2023-09-22T02:35:29.934Z,1.85
2023-09-22T02:37:58.385Z,1.75
2023-09-22T02:40:27.024Z,2.15
2023-09-22T02:42:55.521Z,1.98
2023-09-22T02:45:24.370Z,2.13
2023-09-22T02:47:54.552Z,2.17
2023-09-22T02:50:24.498Z,2.17
2023-09-22T02:52:53.011Z,1.90
2023-09-22T02:55:21.693Z,2.10
2023-09-22T02:57:50.212Z,2.22
2023-09-22T03:00:21.770Z,2.20
2023-09-22T03:02:51.711Z,2.10
2023-09-22T03:05:20.849Z,2.15
2023-09-22T03:07:52.447Z,2.20
2023-09-22T03:10:21.085Z,2.00
2023-09-22T03:12:54.293Z,1.85
2023-09-22T03:15:23.218Z,2.15
2023-09-22T03:17:51.781Z,2.10
2023-09-22T03:20:20.823Z,2.38
2023-09-22T03:22:50.813Z,2.33
2023-09-22T03:25:19.701Z,2.30
2023-09-22T03:27:48.138Z,2.03
2023-09-22T03:30:18.481Z,2.05
2023-09-22T03:32:47.013Z,2.10
2023-09-22T03:35:15.611Z,2.33
2023-09-22T03:37:44.105Z,2.47
2023-09-22T03:40:17.833Z,2.08
2023-09-22T03:42:46.701Z,1.95
2023-09-22T03:45:15.170Z,2.05
2023-09-22T03:47:43.740Z,2.08
2023-09-22T03:50:12.508Z,2.22
2023-09-22T03:52:42.074Z,2.50
2023-09-22T03:55:11.253Z,2.20
2023-09-22T03:57:41.275Z,2.00
2023-09-22T04:00:18.760Z,2.03
2023-09-22T04:02:48.040Z,2.33
2023-09-22T04:05:17.034Z,2.40
2023-09-22T04:07:45.643Z,2.10
2023-09-22T04:10:14.052Z,2.15
2023-09-22T04:12:43.955Z,2.28
2023-09-22T04:15:13.060Z,2.30
2023-09-22T04:17:41.884Z,2.90
2023-09-22T04:20:14.945Z,2.72
2023-09-22T04:22:44.961Z,1.85
2023-09-22T04:25:20.069Z,2.10
2023-09-22T04:27:56.067Z,2.20
2023-09-22T04:30:26.117Z,2.22
2023-09-22T04:32:56.099Z,2.20
2023-09-22T04:35:25.665Z,2.33
2023-09-22T04:37:54.870Z,2.25
2023-09-22T04:40:26.493Z,2.60
2023-09-22T04:42:56.361Z,2.00
2023-09-22T04:45:25.203Z,2.33
2023-09-22T04:47:54.485Z,2.63
2023-09-22T04:50:24.200Z,2.40
2023-09-22T04:52:54.215Z,2.38
2023-09-22T04:55:22.648Z,2.57
2023-09-22T04:57:51.045Z,2.75
2023-09-22T05:00:23.737Z,2.42
2023-09-22T05:02:53.767Z,2.67
2023-09-22T05:05:23.556Z,2.33
2023-09-22T05:07:53.064Z,2.30
2023-09-22T05:10:22.440Z,2.20
2023-09-22T05:12:52.663Z,2.13
2023-09-22T05:15:22.898Z,2.85
2023-09-22T05:17:51.369Z,2.85
2023-09-22T05:20:21.374Z,2.60
2023-09-22T05:22:49.858Z,2.90
2023-09-22T05:25:18.559Z,2.40
2023-09-22T05:27:47.447Z,2.40
2023-09-22T05:30:16.283Z,2.78
2023-09-22T05:32:46.864Z,2.63
2023-09-22T05:37:43.718Z,2.58
2023-09-22T05:40:13.884Z,3.00
2023-09-22T05:42:44.528Z,2.55
2023-09-22T05:45:13.333Z,2.65
2023-09-22T05:47:41.857Z,3.00
2023-09-22T05:50:13.712Z,2.75
2023-09-22T05:52:44.216Z,2.80
2023-09-22T05:55:14.365Z,2.83
2023-09-22T05:57:43.105Z,2.47
2023-09-22T06:00:17.563Z,3.08
2023-09-22T06:02:53.332Z,2.60
2023-09-22T06:05:24.523Z,2.65
2023-09-22T06:07:55.782Z,2.55
2023-09-22T06:10:25.443Z,2.80
2023-09-22T06:12:53.971Z,3.03
2023-09-22T06:15:22.397Z,2.67
2023-09-22T06:17:50.820Z,3.65
2023-09-22T06:20:20.109Z,3.88
2023-09-22T06:22:50.924Z,4.63
2023-09-22T06:25:20.059Z,5.60
2023-09-22T06:27:50.313Z,5.07
2023-09-22T06:30:20.300Z,5.57
2023-09-22T06:32:48.769Z,5.60
2023-09-22T06:35:17.340Z,5.78
2023-09-22T06:37:45.982Z,5.88
2023-09-22T06:40:17.643Z,6.25
2023-09-22T06:42:47.098Z,6.57
2023-09-22T06:45:17.928Z,6.00
2023-09-22T06:47:47.247Z,6.18
2023-09-22T06:50:16.092Z,6.43
2023-09-22T06:52:44.837Z,6.22
2023-09-22T06:55:15.398Z,6.03
2023-09-22T06:57:45.842Z,6.05
2023-09-22T07:00:19.514Z,5.87
2023-09-22T07:02:49.572Z,5.93
2023-09-22T07:05:20.106Z,6.93
2023-09-22T07:07:48.820Z,6.45
2023-09-22T07:10:18.213Z,6.40
2023-09-22T07:12:48.134Z,6.38
2023-09-22T07:15:17.679Z,6.27
2023-09-22T07:17:46.359Z,6.47
2023-09-22T07:20:16.494Z,6.78
2023-09-22T07:22:46.423Z,6.95
2023-09-22T07:25:15.966Z,7.03
2023-09-22T07:27:48.220Z,6.78
2023-09-22T07:30:18.145Z,5.30
2023-09-22T07:32:47.123Z,4.33
2023-09-22T07:35:16.051Z,4.22
2023-09-22T07:37:46.202Z,4.60
2023-09-22T07:42:45.690Z,3.67
2023-09-22T07:45:15.865Z,4.15
2023-09-22T07:47:44.228Z,4.13
2023-09-22T07:50:12.925Z,4.55
2023-09-22T07:52:43.780Z,3.05
2023-09-22T07:55:15.966Z,4.10
2023-09-22T07:57:48.463Z,3.50
2023-09-22T08:00:20.905Z,3.47
2023-09-22T08:02:51.353Z,3.70
2023-09-22T08:05:20.254Z,3.88
2023-09-22T08:07:50.737Z,3.58
2023-09-22T08:10:20.003Z,3.90
2023-09-22T08:12:48.987Z,3.25
2023-09-22T08:15:18.834Z,3.30
2023-09-22T08:17:48.821Z,3.10
2023-09-22T08:20:17.559Z,3.30
2023-09-22T08:22:48.465Z,3.75
2023-09-22T08:25:17.511Z,4.10
2023-09-22T08:27:45.941Z,3.63
2023-09-22T08:30:14.804Z,4.05
2023-09-22T08:32:46.660Z,4.18
2023-09-22T08:35:17.201Z,3.80
2023-09-22T08:37:46.385Z,3.67
2023-09-22T08:40:17.411Z,3.40
2023-09-22T08:42:49.057Z,3.45
2023-09-22T08:45:17.809Z,3.22
2023-09-22T08:47:50.898Z,3.92
2023-09-22T08:50:20.760Z,4.00
2023-09-22T08:52:52.887Z,3.30
2023-09-22T08:55:24.749Z,3.70
2023-09-22T08:57:54.679Z,3.13
2023-09-22T09:00:28.091Z,3.50
2023-09-22T09:03:01.337Z,3.33
2023-09-22T09:05:32.571Z,3.78
2023-09-22T09:08:14.027Z,3.13
2023-09-22T09:10:43.815Z,3.35
2023-09-22T09:13:16.264Z,3.33
2023-09-22T09:15:46.600Z,2.92
2023-09-22T09:18:18.110Z,3.20
2023-09-22T09:20:48.448Z,4.63
2023-09-22T09:23:18.786Z,6.78
2023-09-22T09:25:48.480Z,5.22
2023-09-22T09:28:17.711Z,4.65
2023-09-22T09:30:51.362Z,4.18
2023-09-22T09:33:22.062Z,4.25
2023-09-22T09:38:22.337Z,4.30
2023-09-22T09:40:53.690Z,4.80
2023-09-22T09:43:22.281Z,4.25
2023-09-22T09:45:51.799Z,4.45
2023-09-22T09:48:22.312Z,8.18
2023-09-22T09:50:54.949Z,7.88
2023-09-22T09:53:38.088Z,5.88
2023-09-22T09:56:07.164Z,4.70
2023-09-22T09:58:36.817Z,4.97
2023-09-22T10:01:07.581Z,5.50
2023-09-22T10:03:40.925Z,4.28
2023-09-22T10:06:14.972Z,4.93
2023-09-22T10:08:43.589Z,4.40
2023-09-22T10:11:14.859Z,4.30
2023-09-22T10:13:44.815Z,3.97
2023-09-22T10:16:13.457Z,4.05
2023-09-22T10:18:50.874Z,4.00
2023-09-22T10:21:46.309Z,4.45
2023-09-22T10:24:24.978Z,4.10
2023-09-22T10:27:15.139Z,3.65
2023-09-22T10:29:53.190Z,3.80
2023-09-22T10:35:40.946Z,3.65
2023-09-22T10:38:11.346Z,3.60
2023-09-22T10:40:42.133Z,3.50
2023-09-22T10:43:11.581Z,3.85
2023-09-22T10:45:40.105Z,3.45
2023-09-22T10:48:09.075Z,4.32
2023-09-22T10:50:38.978Z,3.83
2023-09-22T10:53:09.227Z,3.53
2023-09-22T10:55:39.216Z,3.60
2023-09-22T10:58:08.645Z,4.05
2023-09-22T11:00:39.080Z,3.67
2023-09-22T11:03:10.336Z,3.22
2023-09-22T11:05:40.985Z,3.70
2023-09-22T11:10:44.726Z,3.30
2023-09-22T11:13:14.644Z,3.63
2023-09-22T11:15:54.571Z,3.17
2023-09-22T11:18:28.208Z,3.05
2023-09-22T11:21:03.574Z,3.42
2023-09-22T11:23:32.246Z,2.97
2023-09-22T11:26:02.055Z,3.20
2023-09-22T11:28:32.981Z,3.07
2023-09-22T11:31:10.086Z,3.35
2023-09-22T11:33:39.096Z,3.38
2023-09-22T11:36:09.533Z,3.40
2023-09-22T11:38:41.202Z,3.33
2023-09-22T11:41:12.058Z,3.10
2023-09-22T11:46:15.587Z,3.00
2023-09-22T11:48:57.574Z,3.38
2023-09-22T11:51:44.715Z,3.05
2023-09-22T11:54:17.864Z,3.25
2023-09-22T11:56:46.958Z,3.38
2023-09-22T11:59:16.487Z,2.80
2023-09-22T12:01:46.400Z,3.40
2023-09-22T12:04:15.741Z,2.97
2023-09-22T12:06:45.696Z,3.50
2023-09-22T12:09:15.150Z,3.30
2023-09-22T12:11:43.909Z,3.22
2023-09-22T12:14:12.936Z,3.35
2023-09-22T12:16:41.886Z,3.03
2023-09-22T12:19:10.695Z,3.20
2023-09-22T12:21:39.013Z,3.60
2023-09-22T12:24:09.610Z,3.47
2023-09-22T12:26:37.962Z,3.30
2023-09-22T12:29:07.133Z,3.40
2023-09-22T12:31:36.727Z,3.00
2023-09-22T12:34:05.208Z,3.13
2023-09-22T12:36:33.645Z,3.55
2023-09-22T12:39:03.453Z,3.55
2023-09-22T12:41:33.671Z,3.17
2023-09-22T12:44:02.730Z,3.10
2023-09-22T12:46:31.416Z,3.60
2023-09-22T12:49:00.467Z,3.38
2023-09-22T12:51:29.336Z,3.67
2023-09-22T12:53:57.679Z,3.22
2023-09-22T12:56:26.390Z,3.22
2023-09-22T12:58:56.378Z,3.22
2023-09-22T13:01:25.805Z,3.40
2023-09-22T13:03:55.528Z,3.85
2023-09-22T13:06:24.524Z,4.13
2023-09-22T13:08:54.357Z,3.85
2023-09-22T13:11:22.741Z,3.60
2023-09-22T13:13:51.316Z,4.13
2023-09-22T13:16:22.882Z,3.05
2023-09-22T13:18:51.715Z,3.45
2023-09-22T13:21:20.639Z,3.10
2023-09-22T13:23:49.507Z,3.17
2023-09-22T13:26:22.326Z,3.60
2023-09-22T13:28:56.366Z,3.40
2023-09-22T13:31:27.227Z,2.83
2023-09-22T13:33:58.478Z,3.60
2023-09-22T13:36:27.617Z,3.55
2023-09-22T13:38:56.258Z,3.35
2023-09-22T13:41:25.460Z,3.63
2023-09-22T13:43:54.238Z,3.78
2023-09-22T13:46:22.844Z,3.28
2023-09-22T13:48:52.965Z,3.40
2023-09-22T13:51:21.640Z,3.13
2023-09-22T13:53:50.267Z,3.60
2023-09-22T13:56:19.952Z,2.90
2023-09-22T13:58:50.461Z,3.27
2023-09-22T14:01:21.879Z,3.10
2023-09-22T14:03:51.192Z,2.97
2023-09-22T14:06:22.577Z,3.33
2023-09-22T14:08:53.424Z,3.13
2023-09-22T14:11:22.312Z,3.25
2023-09-22T14:13:50.926Z,3.25
2023-09-22T14:16:19.719Z,3.30
2023-09-22T14:18:48.448Z,2.90
2023-09-22T14:21:16.871Z,3.10
2023-09-22T14:23:47.330Z,3.15
2023-09-22T14:28:44.549Z,2.83
2023-09-22T14:31:21.795Z,3.38
2023-09-22T14:33:50.180Z,3.47
2023-09-22T14:36:18.629Z,3.10
2023-09-22T14:38:49.128Z,3.10
2023-09-22T14:41:17.587Z,3.35
2023-09-22T14:43:46.019Z,3.53
2023-09-22T14:46:18.351Z,2.72
2023-09-22T14:48:47.688Z,3.47
2023-09-22T14:51:16.620Z,3.10
2023-09-22T14:53:46.288Z,3.45
2023-09-22T14:56:16.108Z,3.17
2023-09-22T14:58:44.978Z,3.30
2023-09-22T15:01:14.218Z,3.10
2023-09-22T15:03:43.194Z,2.88
2023-09-22T15:06:11.752Z,3.42
2023-09-22T15:08:40.780Z,3.42
2023-09-22T15:11:09.324Z,2.67
2023-09-22T15:13:39.026Z,3.30
2023-09-22T15:16:08.296Z,3.20
2023-09-22T15:18:38.779Z,3.40
2023-09-22T15:21:10.066Z,3.22
2023-09-22T15:23:39.820Z,3.17
2023-09-22T15:26:11.866Z,3.05
2023-09-22T15:28:42.956Z,3.28
2023-09-22T15:31:11.925Z,3.33
2023-09-22T15:33:40.949Z,3.22
2023-09-22T15:36:09.391Z,3.08
2023-09-22T15:38:37.961Z,2.88
2023-09-22T15:41:09.104Z,2.85
2023-09-22T15:43:38.176Z,3.08
2023-09-22T15:46:09.839Z,3.28
2023-09-22T15:48:38.325Z,3.15
2023-09-22T15:51:07.069Z,3.20
2023-09-22T15:53:37.269Z,3.10
2023-09-22T15:56:07.208Z,3.30
2023-09-22T15:58:35.956Z,3.37
2023-09-22T16:01:05.071Z,2.90
2023-09-22T16:03:35.164Z,3.03
2023-09-22T16:06:04.693Z,3.25
2023-09-22T16:08:33.180Z,3.10
2023-09-22T16:11:01.908Z,3.13
2023-09-22T16:13:30.627Z,3.22
2023-09-22T16:16:01.932Z,2.97
2023-09-22T16:18:32.322Z,3.42
2023-09-22T16:21:04.770Z,3.03
2023-09-22T16:23:33.479Z,2.70
2023-09-22T16:26:06.052Z,2.85
2023-09-22T16:28:35.238Z,3.00
2023-09-22T16:31:03.865Z,3.20
2023-09-22T16:33:33.945Z,2.72
2023-09-22T16:36:04.781Z,3.20
2023-09-22T16:38:35.637Z,2.70
2023-09-22T16:41:07.452Z,3.10
2023-09-22T16:43:37.507Z,3.30
2023-09-22T16:46:05.889Z,3.53
2023-09-22T16:48:34.398Z,3.38
2023-09-22T16:51:06.500Z,2.85
2023-09-22T16:53:35.431Z,2.75
2023-09-22T16:56:10.987Z,2.90
2023-09-22T16:58:42.004Z,3.08
2023-09-22T17:01:12.400Z,2.83
2023-09-22T17:03:41.425Z,3.50
2023-09-22T17:06:11.327Z,2.90
2023-09-22T17:08:40.181Z,2.80
2023-09-22T17:11:09.961Z,2.75
2023-09-22T17:13:39.318Z,2.63
2023-09-22T17:16:08.459Z,3.00
2023-09-22T17:18:38.245Z,2.83
2023-09-22T17:21:16.891Z,3.13
2023-09-22T17:23:55.621Z,3.08
2023-09-22T17:26:25.042Z,2.78
2023-09-22T17:28:54.881Z,2.72
2023-09-22T17:31:24.259Z,2.77
2023-09-22T17:33:53.772Z,2.30
2023-09-22T17:36:22.667Z,4.18
2023-09-22T17:38:51.264Z,2.72
2023-09-22T17:41:25.009Z,3.47
2023-09-22T17:43:53.511Z,3.95
2023-09-22T17:46:23.972Z,3.97
2023-09-22T17:48:52.783Z,4.60
2023-09-22T17:51:21.048Z,5.03
2023-09-22T17:53:50.253Z,4.18
2023-09-22T17:56:20.865Z,4.03
2023-09-22T17:58:50.015Z,4.70
2023-09-22T18:01:18.774Z,4.65
2023-09-22T18:03:47.652Z,5.10
2023-09-22T18:06:16.437Z,4.72
2023-09-22T18:08:45.352Z,5.03
2023-09-22T18:11:13.977Z,4.82
2023-09-22T18:13:44.027Z,5.25
2023-09-22T18:16:12.655Z,5.60
2023-09-22T18:18:42.754Z,4.60
2023-09-22T18:21:11.816Z,4.50
2023-09-22T18:23:45.945Z,4.68
2023-09-22T18:26:21.591Z,4.35
2023-09-22T18:28:53.494Z,4.22
2023-09-22T18:31:26.991Z,4.05
2023-09-22T18:33:55.982Z,4.00
2023-09-22T18:36:24.974Z,3.60
2023-09-22T18:38:53.567Z,3.60
2023-09-22T18:41:21.960Z,3.42
2023-09-22T18:43:52.181Z,3.50
2023-09-22T18:46:20.962Z,3.90
2023-09-22T18:48:49.744Z,3.67
2023-09-22T18:51:21.790Z,3.72
2023-09-22T18:53:50.699Z,3.95
2023-09-22T18:56:19.614Z,3.78
2023-09-22T18:58:49.139Z,2.85
2023-09-22T19:01:19.526Z,3.30
2023-09-22T19:03:49.732Z,3.10
2023-09-22T19:06:17.996Z,3.13
2023-09-22T19:08:46.940Z,3.05
2023-09-22T19:11:16.445Z,2.85
2023-09-22T19:13:45.228Z,2.97
2023-09-22T19:16:14.712Z,3.40
2023-09-22T19:18:45.680Z,3.05
2023-09-22T19:21:14.276Z,2.50
2023-09-22T19:23:44.299Z,2.80
2023-09-22T19:26:13.494Z,3.10
2023-09-22T19:28:43.274Z,2.83
2023-09-22T19:31:11.536Z,2.70
2023-09-22T19:33:40.515Z,2.55
2023-09-22T19:36:11.607Z,2.20
2023-09-22T19:38:40.127Z,2.80
2023-09-22T19:41:13.587Z,2.65
2023-09-22T19:43:42.323Z,2.58
2023-09-22T19:46:18.405Z,2.72
2023-09-22T19:48:47.208Z,2.78
2023-09-22T19:51:17.405Z,2.42
2023-09-22T19:53:46.510Z,2.50
2023-09-22T19:56:17.431Z,2.45
2023-09-22T19:58:46.372Z,2.40
2023-09-22T20:01:14.831Z,2.42
2023-09-22T20:03:45.346Z,2.38
2023-09-22T20:06:14.557Z,2.63
2023-09-22T20:08:44.624Z,2.28
2023-09-22T20:11:13.501Z,2.40
2023-09-22T20:13:42.174Z,2.35
2023-09-22T20:16:14.107Z,2.10
2023-09-22T20:18:43.116Z,2.55
2023-09-22T20:21:11.606Z,2.30
2023-09-22T20:23:40.933Z,2.67
2023-09-22T20:26:12.041Z,2.13
2023-09-22T20:28:40.788Z,2.50
2023-09-22T20:31:10.269Z,1.90
2023-09-22T20:33:38.701Z,2.17
2023-09-22T20:36:08.842Z,2.42
2023-09-22T20:38:38.014Z,2.28
2023-09-22T20:41:08.878Z,2.20
2023-09-22T20:43:41.568Z,2.17
2023-09-22T20:46:10.310Z,2.33
2023-09-22T20:48:39.615Z,2.50
2023-09-22T20:51:09.643Z,2.03
2023-09-22T20:53:38.953Z,2.20
2023-09-22T20:56:11.776Z,2.10
2023-09-22T20:58:43.766Z,2.53
2023-09-22T21:01:14.017Z,2.20
2023-09-22T21:03:42.505Z,2.30
2023-09-22T21:06:11.761Z,2.50
2023-09-22T21:08:42.838Z,1.90
2023-09-22T21:11:11.358Z,1.92
2023-09-22T21:13:41.513Z,2.22
2023-09-22T21:16:11.693Z,2.22
2023-09-22T21:18:40.232Z,2.20
2023-09-22T21:21:08.895Z,2.13
2023-09-22T21:23:37.369Z,2.03
2023-09-22T21:26:05.939Z,2.08
2023-09-22T21:28:35.005Z,2.13
2023-09-22T21:31:05.731Z,1.95
2023-09-22T21:36:03.549Z,2.05
2023-09-22T21:38:32.147Z,1.85
2023-09-22T21:41:07.285Z,2.03
2023-09-22T21:43:35.770Z,2.25
2023-09-22T21:46:06.645Z,1.83
2023-09-22T21:48:35.649Z,1.83
2023-09-22T21:51:04.151Z,2.53
2023-09-22T21:53:32.493Z,2.05
2023-09-22T21:56:00.159Z,2.10
2023-09-22T21:58:30.106Z,1.60
2023-09-22T22:00:58.994Z,2.38
2023-09-22T22:03:29.389Z,1.85
2023-09-22T22:05:58.073Z,2.05
2023-09-22T22:08:28.328Z,1.92
2023-09-22T22:10:57.892Z,1.77
2023-09-22T22:13:28.949Z,2.03
2023-09-22T22:15:57.640Z,2.15
2023-09-22T22:18:27.282Z,1.90
2023-09-22T22:20:57.223Z,1.80
2023-09-22T22:23:25.471Z,2.20
2023-09-22T22:25:57.024Z,1.67
2023-09-22T22:28:26.474Z,2.50
2023-09-22T22:30:57.712Z,2.45
2023-09-22T22:33:27.382Z,1.77
2023-09-22T22:35:57.338Z,1.65
2023-09-22T22:38:26.749Z,2.37
2023-09-22T22:40:55.168Z,1.83
2023-09-22T22:43:23.736Z,2.15
2023-09-22T22:45:52.043Z,2.22
2023-09-22T22:48:20.430Z,1.77
2023-09-22T22:50:49.961Z,1.80
2023-09-22T22:53:20.235Z,2.15
2023-09-22T22:55:48.719Z,1.75
2023-09-22T22:58:20.995Z,1.77
2023-09-22T23:00:55.734Z,1.67
2023-09-22T23:03:26.176Z,2.10
2023-09-22T23:05:55.390Z,1.85
2023-09-22T23:08:25.336Z,2.13
2023-09-22T23:11:07.183Z,1.60
2023-09-22T23:13:38.962Z,1.73
2023-09-22T23:16:12.462Z,1.90
2023-09-22T23:18:42.906Z,1.88
2023-09-22T23:21:11.662Z,1.92
2023-09-22T23:23:41.362Z,1.92
2023-09-22T23:26:10.044Z,2.00
2023-09-22T23:28:40.809Z,1.80
2023-09-22T23:31:11.822Z,2.00
2023-09-22T23:36:08.987Z,1.88
2023-09-22T23:38:37.381Z,1.73
2023-09-22T23:41:11.830Z,1.90
2023-09-22T23:43:40.859Z,1.70
2023-09-22T23:46:09.557Z,1.77
2023-09-22T23:48:39.177Z,1.50
2023-09-22T23:51:08.801Z,1.77
2023-09-22T23:53:37.942Z,1.50
2023-09-22T23:56:07.814Z,1.83
2023-09-22T23:58:36.679Z,1.97
